»·PEaware :: N434EP KYKM-KSEA

N434EP :: KYKM-KSEA

FLIGHT INFORMATION

Flight Status: Arrived
Operator: Privately registered:
United States
More flights under this callsign
Pilot: Drew H. (3199)
Aircraft: Unknown
(VIPJ)
More flights by this aircraft type
Origin: KYKM Yakima Air Term/Mcallister
United States
Destination: KSEA Seattle-Tacoma Intl
United States
More flights between these airports :: More routes between these airports
Route: +NACHES4 YKM V4 CHINS CHINS2
File this flight plan on PilotEdge
Remarks:
Altitude:
(Current/Filed)
12,000ft
Speed:
(Current/Filed)
350kts
Departed: 03-Dec-17 05:26 PM
Arrived: 03-Dec-17 05:57 PM
Distance/Time
Traveled:
89nm/0:31
Distance/Time
To Go:
Arrived

Flight Plot

Page will automatically refresh every two minutes.

Flight plan parsing failed; only flown route is shown


Map Options




Map Legend


Flown Route
Filed Route
Departure Airport
Arrival Airport
Navaid (VOR, NDB)
Fix

Horizontal Profiles

Position Reports

Time Latitude Longitude Heading Altitude Ground
Speed
03-Dec-17 17:03 46.572827 -120.553580 288 1103ft 0kts
03-Dec-17 17:04 46.572827 -120.553580 288 1103ft 0kts
03-Dec-17 17:05 46.572827 -120.553580 288 1103ft 0kts
03-Dec-17 17:06 46.572827 -120.553580 288 1103ft 0kts
03-Dec-17 17:07 46.572827 -120.553580 288 1103ft 0kts
03-Dec-17 17:08 46.572827 -120.553580 288 1103ft 0kts
03-Dec-17 17:09 46.572827 -120.553580 288 1103ft 0kts
03-Dec-17 17:10 46.572827 -120.553580 288 1103ft 0kts
03-Dec-17 17:11 46.572827 -120.553580 288 1103ft 0kts
03-Dec-17 17:12 46.572827 -120.553580 288 1103ft 0kts
03-Dec-17 17:13 46.572827 -120.553580 288 1103ft 0kts
03-Dec-17 17:14 46.572827 -120.553580 288 1103ft 0kts
03-Dec-17 17:15 46.572827 -120.553580 288 1103ft 0kts
03-Dec-17 17:16 46.572827 -120.553580 288 1103ft 0kts
03-Dec-17 17:17 46.572827 -120.553580 288 1103ft 0kts
03-Dec-17 17:18 46.572827 -120.553580 288 1103ft 0kts
03-Dec-17 17:19 46.572827 -120.553580 288 1103ft 0kts
03-Dec-17 17:20 46.572827 -120.553580 288 1103ft 0kts
03-Dec-17 17:21 46.572827 -120.553580 288 1103ft 0kts
03-Dec-17 17:22 46.572827 -120.553580 288 1103ft 0kts
03-Dec-17 17:23 46.572827 -120.553580 288 1103ft 0kts
03-Dec-17 17:24 46.572827 -120.553580 288 1103ft 0kts
03-Dec-17 17:25 46.572827 -120.553580 288 1103ft 0kts
03-Dec-17 17:26 46.571210 -120.549504 109 1103ft 29kts
03-Dec-17 17:27 46.568425 -120.538426 109 1103ft 27kts
03-Dec-17 17:28 46.566445 -120.531513 183 1103ft 0kts
03-Dec-17 17:29 46.566445 -120.531513 183 1103ft 0kts
03-Dec-17 17:30 46.566445 -120.531513 183 1103ft 0kts
03-Dec-17 17:31 46.570450 -120.551108 292 1254ft 169kts
03-Dec-17 17:32 46.612370 -120.592315 334 5827ft 202kts
03-Dec-17 17:33 46.662192 -120.626553 334 10164ft 208kts
03-Dec-17 17:34 46.721488 -120.667260 334 12061ft 303kts
03-Dec-17 17:35 46.807874 -120.727056 330 11989ft 365kts
03-Dec-17 17:36 46.821264 -120.855855 246 12011ft 355kts
03-Dec-17 17:37 46.829188 -120.986779 302 11909ft 334kts
03-Dec-17 17:38 46.879882 -121.097665 305 11841ft 326kts
03-Dec-17 17:39 46.929821 -121.204526 305 11842ft 317kts
03-Dec-17 17:40 46.979121 -121.310357 305 11843ft 314kts
03-Dec-17 17:41 47.025841 -121.411051 305 11827ft 280kts
03-Dec-17 17:42 47.068118 -121.502443 305 11842ft 271kts
03-Dec-17 17:43 47.109535 -121.592291 305 11846ft 272kts
03-Dec-17 17:44 47.150299 -121.681028 304 11846ft 275kts
03-Dec-17 17:45 47.192937 -121.774146 304 11846ft 276kts
03-Dec-17 17:46 47.235152 -121.866647 304 11841ft 268kts
03-Dec-17 17:47 47.276056 -121.956579 304 11843ft 261kts
03-Dec-17 17:48 47.309365 -122.030013 304 11844ft 258kts
03-Dec-17 17:49 47.339132 -122.134029 242 11702ft 239kts
03-Dec-17 17:50 47.277752 -122.168770 195 10166ft 243kts
03-Dec-17 17:51 47.213414 -122.192511 195 8691ft 224kts
03-Dec-17 17:52 47.158292 -122.212476 195 6362ft 200kts
03-Dec-17 17:53 47.113767 -122.221528 152 4282ft 198kts
03-Dec-17 17:54 47.123281 -122.182016 331 3856ft 149kts
03-Dec-17 17:55 47.166537 -122.227349 325 3893ft 196kts
03-Dec-17 17:56 47.207079 -122.269982 325 3866ft 229kts
03-Dec-17 17:57 47.257536 -122.318758 351 3233ft 221kts
03-Dec-17 17:58 47.322620 -122.318961 359 2742ft 192kts
03-Dec-17 17:59 47.363698 -122.318641 359 1960ft 165kts
03-Dec-17 18:00 47.407365 -122.318437 0 1108ft 139kts
03-Dec-17 18:01 47.439995 -122.318082 358 506ft 99kts
03-Dec-17 18:02 47.454100 -122.316728 33 437ft 0kts
03-Dec-17 18:03 47.452292 -122.313510 181 437ft 35kts
03-Dec-17 18:04 47.440843 -122.313606 180 437ft 42kts
03-Dec-17 18:05 47.438388 -122.315076 6 437ft 0kts

Navigation Log

Ident Type
Flight plan parsing failed, navigation log unavailable